sensor_id;sensor_type;location;lat;lon;timestamp;pressure;altitude;pressure_sealevel;temperature
74060;BMP280;62414;53.436;8.828;2022-10-17T11:56:50;101760.50;;;17.57
74060;BMP280;62414;53.436;8.828;2022-10-17T12:02:31;101740.72;;;17.71
74060;BMP280;62414;53.436;8.828;2022-10-17T12:05:00;101761.25;;;17.66
74060;BMP280;62414;53.436;8.828;2022-10-17T12:07:35;101761.13;;;17.61
74060;BMP280;62414;53.436;8.828;2022-10-17T12:10:17;101766.44;;;17.64
74060;BMP280;62414;53.436;8.828;2022-10-17T12:12:45;101776.66;;;17.64
74060;BMP280;62414;53.436;8.828;2022-10-17T12:15:28;101799.59;;;17.57
74060;BMP280;62414;53.436;8.828;2022-10-17T12:17:55;101804.50;;;17.53
74060;BMP280;62414;53.436;8.828;2022-10-17T12:20:30;101802.03;;;17.46
74060;BMP280;62414;53.436;8.828;2022-10-17T12:23:00;101794.91;;;17.49
74060;BMP280;62414;53.436;8.828;2022-10-17T12:25:27;101806.59;;;17.49
74060;BMP280;62414;53.436;8.828;2022-10-17T12:28:11;101791.69;;;17.50
74060;BMP280;62414;53.436;8.828;2022-10-17T12:30:48;101779.84;;;17.53
74060;BMP280;62414;53.436;8.828;2022-10-17T12:33:16;101759.31;;;17.58
74060;BMP280;62414;53.436;8.828;2022-10-17T12:35:42;101750.16;;;17.61
74060;BMP280;62414;53.436;8.828;2022-10-17T12:38:20;101725.50;;;17.70
74060;BMP280;62414;53.436;8.828;2022-10-17T12:41:05;101705.56;;;17.88
74060;BMP280;62414;53.436;8.828;2022-10-17T12:43:45;101685.88;;;17.89
74060;BMP280;62414;53.436;8.828;2022-10-17T12:46:11;101692.88;;;17.90
74060;BMP280;62414;53.436;8.828;2022-10-17T12:48:58;101701.72;;;17.85
74060;BMP280;62414;53.436;8.828;2022-10-17T12:51:23;101699.63;;;17.80
74060;BMP280;62414;53.436;8.828;2022-10-17T12:53:54;101699.63;;;17.80
74060;BMP280;62414;53.436;8.828;2022-10-17T12:56:30;101707.06;;;17.80
74060;BMP280;62414;53.436;8.828;2022-10-17T12:58:57;101704.06;;;17.78
74060;BMP280;62414;53.436;8.828;2022-10-17T13:01:27;101715.91;;;17.74
74060;BMP280;62414;53.436;8.828;2022-10-17T13:03:53;101726.41;;;17.76
74060;BMP280;62414;53.436;8.828;2022-10-17T13:06:21;101722.31;;;17.71
74060;BMP280;62414;53.436;8.828;2022-10-17T13:08:49;101743.91;;;17.69
74060;BMP280;62414;53.436;8.828;2022-10-17T13:11:21;101740.91;;;17.67
74060;BMP280;62414;53.436;8.828;2022-10-17T13:13:49;101767.19;;;17.65
74060;BMP280;62414;53.436;8.828;2022-10-17T13:16:28;101776.31;;;17.62
74060;BMP280;62414;53.436;8.828;2022-10-17T13:18:54;101789.88;;;17.56
74060;BMP280;62414;53.436;8.828;2022-10-17T13:21:19;101778.31;;;17.52
74060;BMP280;62414;53.436;8.828;2022-10-17T13:23:45;101778.00;;;17.50
74060;BMP280;62414;53.436;8.828;2022-10-17T13:26:13;101797.66;;;17.49
74060;BMP280;62414;53.436;8.828;2022-10-17T13:28:39;101797.00;;;17.45
74060;BMP280;62414;53.436;8.828;2022-10-17T13:31:05;101801.00;;;17.44
74060;BMP280;62414;53.436;8.828;2022-10-17T13:33:37;101787.72;;;17.42
74060;BMP280;62414;53.436;8.828;2022-10-17T13:36:06;101792.00;;;17.43
74060;BMP280;62414;53.436;8.828;2022-10-17T13:38:33;101805.69;;;17.43
74060;BMP280;62414;53.436;8.828;2022-10-17T13:41:00;101809.31;;;17.40
74060;BMP280;62414;53.436;8.828;2022-10-17T13:43:25;101792.28;;;17.36
74060;BMP280;62414;53.436;8.828;2022-10-17T13:45:53;101804.31;;;17.38
74060;BMP280;62414;53.436;8.828;2022-10-17T13:48:22;101807.19;;;17.35
74060;BMP280;62414;53.436;8.828;2022-10-17T13:50:51;101808.88;;;17.32
74060;BMP280;62414;53.436;8.828;2022-10-17T13:53:20;101807.06;;;17.29
74060;BMP280;62414;53.436;8.828;2022-10-17T13:55:57;101814.19;;;17.27
74060;BMP280;62414;53.436;8.828;2022-10-17T13:58:23;101824.81;;;17.25
74060;BMP280;62414;53.436;8.828;2022-10-17T14:00:49;101827.56;;;17.25
74060;BMP280;62414;53.436;8.828;2022-10-17T14:03:15;101830.28;;;17.25
74060;BMP280;62414;53.436;8.828;2022-10-17T14:06:03;101842.75;;;17.26
74060;BMP280;62414;53.436;8.828;2022-10-17T14:08:29;101836.06;;;17.27
74060;BMP280;62414;53.436;8.828;2022-10-17T14:10:56;101834.84;;;17.28
74060;BMP280;62414;53.436;8.828;2022-10-17T14:13:23;101828.03;;;17.32
74060;BMP280;62414;53.436;8.828;2022-10-17T14:15:50;101823.47;;;17.38
74060;BMP280;62414;53.436;8.828;2022-10-17T14:18:19;101835.22;;;17.39
74060;BMP280;62414;53.436;8.828;2022-10-17T14:20:46;101828.34;;;17.34
74060;BMP280;62414;53.436;8.828;2022-10-17T14:23:35;101830.63;;;17.36
74060;BMP280;62414;53.436;8.828;2022-10-17T14:26:10;101836.53;;;17.34
74060;BMP280;62414;53.436;8.828;2022-10-17T14:28:37;101835.47;;;17.32
74060;BMP280;62414;53.436;8.828;2022-10-17T14:31:20;101847.47;;;17.25
74060;BMP280;62414;53.436;8.828;2022-10-17T14:33:47;101842.16;;;17.22
74060;BMP280;62414;53.436;8.828;2022-10-17T14:36:14;101858.22;;;17.20
74060;BMP280;62414;53.436;8.828;2022-10-17T14:38:45;101866.16;;;17.18
74060;BMP280;62414;53.436;8.828;2022-10-17T14:41:17;101860.06;;;17.14
74060;BMP280;62414;53.436;8.828;2022-10-17T14:43:44;101870.69;;;17.12
74060;BMP280;62414;53.436;8.828;2022-10-17T14:46:16;101871.47;;;17.12
74060;BMP280;62414;53.436;8.828;2022-10-17T14:48:41;101878.56;;;17.09
74060;BMP280;62414;53.436;8.828;2022-10-17T14:51:09;101878.75;;;17.06
74060;BMP280;62414;53.436;8.828;2022-10-17T14:53:35;101880.25;;;17.07
74060;BMP280;62414;53.436;8.828;2022-10-17T14:56:04;101884.63;;;17.04
74060;BMP280;62414;53.436;8.828;2022-10-17T14:58:44;101889.81;;;17.02
74060;BMP280;62414;53.436;8.828;2022-10-17T15:01:09;101882.81;;;17.01
74060;BMP280;62414;53.436;8.828;2022-10-17T15:03:35;101902.75;;;17.02
74060;BMP280;62414;53.436;8.828;2022-10-17T15:06:11;101896.50;;;17.01
74060;BMP280;62414;53.436;8.828;2022-10-17T15:08:39;101896.34;;;17.05
74060;BMP280;62414;53.436;8.828;2022-10-17T15:11:08;101897.44;;;17.07
74060;BMP280;62414;53.436;8.828;2022-10-17T15:13:35;101898.31;;;17.04
74060;BMP280;62414;53.436;8.828;2022-10-17T15:16:00;101904.53;;;17.05
74060;BMP280;62414;53.436;8.828;2022-10-17T15:18:25;101900.63;;;17.06
74060;BMP280;62414;53.436;8.828;2022-10-17T15:20:51;101902.91;;;17.07
74060;BMP280;62414;53.436;8.828;2022-10-17T15:23:16;101904.44;;;17.08
74060;BMP280;62414;53.436;8.828;2022-10-17T15:25:42;101903.97;;;17.10
74060;BMP280;62414;53.436;8.828;2022-10-17T15:28:10;101906.41;;;17.08
74060;BMP280;62414;53.436;8.828;2022-10-17T15:30:37;101914.72;;;17.04
74060;BMP280;62414;53.436;8.828;2022-10-17T15:33:03;101917.94;;;17.03
74060;BMP280;62414;53.436;8.828;2022-10-17T15:35:29;101920.38;;;17.01
74060;BMP280;62414;53.436;8.828;2022-10-17T15:37:55;101923.53;;;16.99
74060;BMP280;62414;53.436;8.828;2022-10-17T16:29:22;101949.06;;;16.74
74060;BMP280;62414;53.436;8.828;2022-10-17T16:31:48;101950.72;;;16.72
74060;BMP280;62414;53.436;8.828;2022-10-17T16:34:14;101952.28;;;16.73
74060;BMP280;62414;53.436;8.828;2022-10-17T16:36:40;101953.47;;;16.72
74060;BMP280;62414;53.436;8.828;2022-10-17T16:39:06;101961.66;;;16.72
74060;BMP280;62414;53.436;8.828;2022-10-17T16:41:33;101969.44;;;16.73
74060;BMP280;62414;53.436;8.828;2022-10-17T16:44:01;101966.38;;;16.71
74060;BMP280;62414;53.436;8.828;2022-10-17T16:46:29;101970.75;;;16.69
74060;BMP280;62414;53.436;8.828;2022-10-17T16:48:55;101975.78;;;16.70
74060;BMP280;62414;53.436;8.828;2022-10-17T16:51:20;101971.09;;;16.71
74060;BMP280;62414;53.436;8.828;2022-10-17T16:53:47;101983.22;;;16.70
74060;BMP280;62414;53.436;8.828;2022-10-17T16:56:16;101993.88;;;16.68
74060;BMP280;62414;53.436;8.828;2022-10-17T16:58:41;101991.16;;;16.68
74060;BMP280;62414;53.436;8.828;2022-10-17T17:01:09;101995.06;;;16.67
74060;BMP280;62414;53.436;8.828;2022-10-17T17:03:37;102012.22;;;16.67
74060;BMP280;62414;53.436;8.828;2022-10-17T17:06:04;102009.94;;;16.66
74060;BMP280;62414;53.436;8.828;2022-10-17T17:08:30;102013.44;;;16.66
74060;BMP280;62414;53.436;8.828;2022-10-17T17:10:55;102009.63;;;16.64
74060;BMP280;62414;53.436;8.828;2022-10-17T17:13:21;102019.03;;;16.63
74060;BMP280;62414;53.436;8.828;2022-10-17T17:15:46;102021.00;;;16.62
74060;BMP280;62414;53.436;8.828;2022-10-17T17:18:12;102019.41;;;16.52
74060;BMP280;62414;53.436;8.828;2022-10-17T17:20:38;102020.06;;;16.43
74060;BMP280;62414;53.436;8.828;2022-10-17T17:23:04;102028.19;;;16.34
74060;BMP280;62414;53.436;8.828;2022-10-17T17:25:29;102027.22;;;16.28
74060;BMP280;62414;53.436;8.828;2022-10-17T17:27:55;102040.34;;;16.21
74060;BMP280;62414;53.436;8.828;2022-10-17T17:30:20;102033.91;;;16.14
74060;BMP280;62414;53.436;8.828;2022-10-17T17:32:46;102042.88;;;16.15
74060;BMP280;62414;53.436;8.828;2022-10-17T17:35:11;102045.59;;;16.15
74060;BMP280;62414;53.436;8.828;2022-10-17T17:37:38;102042.88;;;16.15
74060;BMP280;62414;53.436;8.828;2022-10-17T17:40:04;102048.03;;;16.13
74060;BMP280;62414;53.436;8.828;2022-10-17T17:42:30;102043.00;;;16.11
74060;BMP280;62414;53.436;8.828;2022-10-17T17:44:55;102046.13;;;16.10
74060;BMP280;62414;53.436;8.828;2022-10-17T17:47:21;102071.97;;;16.09
74060;BMP280;62414;53.436;8.828;2022-10-17T17:49:46;102078.16;;;15.97
74060;BMP280;62414;53.436;8.828;2022-10-17T17:52:11;102067.78;;;15.92
74060;BMP280;62414;53.436;8.828;2022-10-17T17:54:38;102064.72;;;15.90
74060;BMP280;62414;53.436;8.828;2022-10-17T17:57:04;102047.69;;;15.86
74060;BMP280;62414;53.436;8.828;2022-10-17T17:59:29;102054.47;;;15.81
74060;BMP280;62414;53.436;8.828;2022-10-17T18:01:54;102059.16;;;15.80
74060;BMP280;62414;53.436;8.828;2022-10-17T18:04:20;102057.81;;;15.72
74060;BMP280;62414;53.436;8.828;2022-10-17T18:06:45;102062.44;;;15.75
74060;BMP280;62414;53.436;8.828;2022-10-17T18:09:11;102064.06;;;15.73
74060;BMP280;62414;53.436;8.828;2022-10-17T18:11:37;102064.06;;;15.73
74060;BMP280;62414;53.436;8.828;2022-10-17T18:14:05;102057.53;;;15.70
74060;BMP280;62414;53.436;8.828;2022-10-17T18:16:32;102064.75;;;15.64
74060;BMP280;62414;53.436;8.828;2022-10-17T18:19:00;102066.03;;;15.60
74060;BMP280;62414;53.436;8.828;2022-10-17T18:21:26;102074.78;;;15.55
74060;BMP280;62414;53.436;8.828;2022-10-17T18:23:51;102076.91;;;15.47
74060;BMP280;62414;53.436;8.828;2022-10-17T18:26:17;102067.59;;;15.44
74060;BMP280;62414;53.436;8.828;2022-10-17T18:28:44;102066.53;;;15.42
74060;BMP280;62414;53.436;8.828;2022-10-17T18:31:11;102068.59;;;15.38
74060;BMP280;62414;53.436;8.828;2022-10-17T18:33:37;102066.72;;;15.35
74060;BMP280;62414;53.436;8.828;2022-10-17T18:36:04;102065.66;;;15.32
74060;BMP280;62414;53.436;8.828;2022-10-17T18:38:29;102072.31;;;15.31
74060;BMP280;62414;53.436;8.828;2022-10-17T18:41:01;102075.03;;;15.31
74060;BMP280;62414;53.436;8.828;2022-10-17T18:43:27;102075.44;;;15.30
74060;BMP280;62414;53.436;8.828;2022-10-17T18:46:00;102077.06;;;15.27
74060;BMP280;62414;53.436;8.828;2022-10-17T18:48:26;102075.22;;;15.24
74060;BMP280;62414;53.436;8.828;2022-10-17T18:50:51;102083.50;;;15.20
74060;BMP280;62414;53.436;8.828;2022-10-17T18:53:16;102090.16;;;15.19
74060;BMP280;62414;53.436;8.828;2022-10-17T18:55:42;102085.13;;;15.18
74060;BMP280;62414;53.436;8.828;2022-10-17T18:58:07;102091.00;;;15.16
74060;BMP280;62414;53.436;8.828;2022-10-17T19:00:33;102100.06;;;15.13
74060;BMP280;62414;53.436;8.828;2022-10-17T19:02:59;102105.16;;;15.11
74060;BMP280;62414;53.436;8.828;2022-10-17T19:05:25;102102.56;;;15.08
74060;BMP280;62414;53.436;8.828;2022-10-17T19:07:50;102108.53;;;15.03
74060;BMP280;62414;53.436;8.828;2022-10-17T19:10:16;102107.41;;;15.00
74060;BMP280;62414;53.436;8.828;2022-10-17T19:12:41;102103.66;;;14.94
74060;BMP280;62414;53.436;8.828;2022-10-17T19:15:07;102107.16;;;14.95
74060;BMP280;62414;53.436;8.828;2022-10-17T19:17:32;102118.94;;;14.92
74060;BMP280;62414;53.436;8.828;2022-10-17T19:19:59;102117.06;;;14.88
74060;BMP280;62414;53.436;8.828;2022-10-17T19:22:25;102122.91;;;14.87
74060;BMP280;62414;53.436;8.828;2022-10-17T19:24:50;102130.78;;;14.85
74060;BMP280;62414;53.436;8.828;2022-10-17T19:27:15;102133.94;;;14.83
74060;BMP280;62414;53.436;8.828;2022-10-17T19:29:41;102144.06;;;14.83
74060;BMP280;62414;53.436;8.828;2022-10-17T19:32:06;102138.59;;;14.83
74060;BMP280;62414;53.436;8.828;2022-10-17T19:34:32;102147.97;;;14.82
74060;BMP280;62414;53.436;8.828;2022-10-17T19:37:00;102155.41;;;14.81
74060;BMP280;62414;53.436;8.828;2022-10-17T19:39:25;102160.84;;;14.81
74060;BMP280;62414;53.436;8.828;2022-10-17T19:41:51;102154.88;;;14.86
74060;BMP280;62414;53.436;8.828;2022-10-17T19:44:17;102150.13;;;14.91
74060;BMP280;62414;53.436;8.828;2022-10-17T19:46:42;102156.69;;;14.93
74060;BMP280;62414;53.436;8.828;2022-10-17T19:49:09;102163.69;;;14.94
74060;BMP280;62414;53.436;8.828;2022-10-17T19:51:35;102167.94;;;14.95
74060;BMP280;62414;53.436;8.828;2022-10-17T19:54:03;102164.78;;;14.97
74060;BMP280;62414;53.436;8.828;2022-10-17T19:56:30;102172.88;;;15.00
74060;BMP280;62414;53.436;8.828;2022-10-17T19:58:56;102172.44;;;15.02
74060;BMP280;62414;53.436;8.828;2022-10-17T20:01:23;102174.00;;;15.03
74060;BMP280;62414;53.436;8.828;2022-10-17T20:03:49;102189.13;;;15.04
74060;BMP280;62414;53.436;8.828;2022-10-17T20:06:15;102189.47;;;15.06
74060;BMP280;62414;53.436;8.828;2022-10-17T20:08:41;102178.16;;;15.07
74060;BMP280;62414;53.436;8.828;2022-10-17T20:11:10;102187.78;;;15.12
74060;BMP280;62414;53.436;8.828;2022-10-17T20:13:36;102188.56;;;15.12
74060;BMP280;62414;53.436;8.828;2022-10-17T20:16:03;102194.34;;;15.14
74060;BMP280;62414;53.436;8.828;2022-10-17T20:18:29;102192.38;;;15.15
74060;BMP280;62414;53.436;8.828;2022-10-17T20:20:54;102205.16;;;15.18
74060;BMP280;62414;53.436;8.828;2022-10-17T20:23:20;102202.78;;;15.20
74060;BMP280;62414;53.436;8.828;2022-10-17T20:25:46;102210.53;;;15.22
74060;BMP280;62414;53.436;8.828;2022-10-17T20:28:13;102204.22;;;15.25
74060;BMP280;62414;53.436;8.828;2022-10-17T20:30:42;102204.66;;;15.23
74060;BMP280;62414;53.436;8.828;2022-10-17T20:33:07;102213.94;;;15.26
74060;BMP280;62414;53.436;8.828;2022-10-17T20:35:33;102211.22;;;15.26
74060;BMP280;62414;53.436;8.828;2022-10-17T20:37:58;102215.13;;;15.25
74060;BMP280;62414;53.436;8.828;2022-10-17T20:40:24;102230.75;;;15.24
74060;BMP280;62414;53.436;8.828;2022-10-17T20:42:49;102236.56;;;15.26
74060;BMP280;62414;53.436;8.828;2022-10-17T20:45:16;102234.59;;;15.27
74060;BMP280;62414;53.436;8.828;2022-10-17T20:47:41;102245.06;;;15.28
74060;BMP280;62414;53.436;8.828;2022-10-17T20:50:07;102240.88;;;15.24
74060;BMP280;62414;53.436;8.828;2022-10-17T20:52:32;102243.63;;;15.24
74060;BMP280;62414;53.436;8.828;2022-10-17T20:54:58;102244.38;;;15.24
74060;BMP280;62414;53.436;8.828;2022-10-17T20:57:23;102253.41;;;15.21
74060;BMP280;62414;53.436;8.828;2022-10-17T20:59:49;102249.59;;;15.18
74060;BMP280;62414;53.436;8.828;2022-10-17T21:02:15;102253.09;;;15.19
74060;BMP280;62414;53.436;8.828;2022-10-17T21:04:41;102252.66;;;15.20
74060;BMP280;62414;53.436;8.828;2022-10-17T21:07:06;102246.84;;;15.18
74060;BMP280;62414;53.436;8.828;2022-10-17T21:09:32;102250.00;;;15.17
74060;BMP280;62414;53.436;8.828;2022-10-17T21:11:57;102255.88;;;15.15
74060;BMP280;62414;53.436;8.828;2022-10-17T21:14:23;102261.31;;;15.15
74060;BMP280;62414;53.436;8.828;2022-10-17T21:16:49;102250.88;;;15.14
74060;BMP280;62414;53.436;8.828;2022-10-17T21:19:16;102247.69;;;15.15
74060;BMP280;62414;53.436;8.828;2022-10-17T21:21:43;102251.31;;;15.12
74060;BMP280;62414;53.436;8.828;2022-10-17T21:24:11;102248.28;;;15.07
74060;BMP280;62414;53.436;8.828;2022-10-17T21:26:38;102246.41;;;15.04
74060;BMP280;62414;53.436;8.828;2022-10-17T21:29:05;102256.66;;;15.00
74060;BMP280;62414;53.436;8.828;2022-10-17T21:31:31;102241.16;;;14.97
74060;BMP280;62414;53.436;8.828;2022-10-17T21:33:59;102243.63;;;14.91
74060;BMP280;62414;53.436;8.828;2022-10-17T21:36:27;102254.19;;;14.89
74060;BMP280;62414;53.436;8.828;2022-10-17T21:38:54;102247.59;;;14.86
74060;BMP280;62414;53.436;8.828;2022-10-17T21:41:21;102251.97;;;14.84
74060;BMP280;62414;53.436;8.828;2022-10-17T21:43:51;102254.78;;;14.80
74060;BMP280;62414;53.436;8.828;2022-10-17T21:46:17;102259.84;;;14.78
74060;BMP280;62414;53.436;8.828;2022-10-17T21:48:44;102253.75;;;14.74
74060;BMP280;62414;53.436;8.828;2022-10-17T21:51:13;102263.53;;;14.72
74060;BMP280;62414;53.436;8.828;2022-10-17T21:53:40;102261.22;;;14.70
74060;BMP280;62414;53.436;8.828;2022-10-17T21:56:08;102260.44;;;14.70
74060;BMP280;62414;53.436;8.828;2022-10-17T21:58:34;102263.25;;;14.66
74060;BMP280;62414;53.436;8.828;2022-10-17T22:01:04;102273.41;;;14.66
74060;BMP280;62414;53.436;8.828;2022-10-17T22:03:31;102270.28;;;14.64
74060;BMP280;62414;53.436;8.828;2022-10-17T22:05:56;102267.56;;;14.64
74060;BMP280;62414;53.436;8.828;2022-10-17T22:08:22;102279.69;;;14.63
74060;BMP280;62414;53.436;8.828;2022-10-17T22:10:49;102272.72;;;14.62
74060;BMP280;62414;53.436;8.828;2022-10-17T22:13:14;102263.75;;;14.61
74060;BMP280;62414;53.436;8.828;2022-10-17T22:15:39;102267.69;;;14.60
74060;BMP280;62414;53.436;8.828;2022-10-17T22:18:05;102270.03;;;14.58
74060;BMP280;62414;53.436;8.828;2022-10-17T22:20:32;102276.25;;;14.58
74060;BMP280;62414;53.436;8.828;2022-10-17T22:22:58;102279.34;;;14.61
74060;BMP280;62414;53.436;8.828;2022-10-17T22:25:23;102271.19;;;14.61
74060;BMP280;62414;53.436;8.828;2022-10-17T22:27:50;102270.03;;;14.58
74060;BMP280;62414;53.436;8.828;2022-10-17T22:30:16;102275.94;;;14.56
74060;BMP280;62414;53.436;8.828;2022-10-17T22:32:41;102274.41;;;14.55
74060;BMP280;62414;53.436;8.828;2022-10-17T22:35:07;102273.22;;;14.56
74060;BMP280;62414;53.436;8.828;2022-10-17T22:37:33;102268.94;;;14.55
74060;BMP280;62414;53.436;8.828;2022-10-17T22:39:58;102265.47;;;14.55
74060;BMP280;62414;53.436;8.828;2022-10-17T22:42:24;102265.84;;;14.53
74060;BMP280;62414;53.436;8.828;2022-10-17T22:44:50;102268.25;;;14.51
74060;BMP280;62414;53.436;8.828;2022-10-17T22:47:16;102262.44;;;14.49
74060;BMP280;62414;53.436;8.828;2022-10-17T22:49:41;102269.09;;;14.48
74060;BMP280;62414;53.436;8.828;2022-10-17T22:52:07;102273.84;;;14.44
74060;BMP280;62414;53.436;8.828;2022-10-17T22:54:32;102281.25;;;14.44
74060;BMP280;62414;53.436;8.828;2022-10-17T22:56:57;102283.63;;;14.42
74060;BMP280;62414;53.436;8.828;2022-10-17T22:59:23;102281.28;;;14.40
74060;BMP280;62414;53.436;8.828;2022-10-17T23:01:50;102272.81;;;14.38
74060;BMP280;62414;53.436;8.828;2022-10-17T23:04:15;102275.19;;;14.36
74060;BMP280;62414;53.436;8.828;2022-10-17T23:06:40;102278.69;;;14.37
74060;BMP280;62414;53.436;8.828;2022-10-17T23:09:06;102277.13;;;14.36
74060;BMP280;62414;53.436;8.828;2022-10-17T23:11:31;102278.72;;;14.33
74060;BMP280;62414;53.436;8.828;2022-10-17T23:13:57;102278.78;;;14.30
74060;BMP280;62414;53.436;8.828;2022-10-17T23:16:22;102277.63;;;14.31
74060;BMP280;62414;53.436;8.828;2022-10-17T23:18:49;102277.25;;;14.28
74060;BMP280;62414;53.436;8.828;2022-10-17T23:21:14;102276.16;;;14.26
74060;BMP280;62414;53.436;8.828;2022-10-17T23:23:40;102272.72;;;14.22
74060;BMP280;62414;53.436;8.828;2022-10-17T23:26:07;102278.25;;;14.18
74060;BMP280;62414;53.436;8.828;2022-10-17T23:28:32;102286.00;;;14.20
74060;BMP280;62414;53.436;8.828;2022-10-17T23:30:58;102287.88;;;14.23
74060;BMP280;62414;53.436;8.828;2022-10-17T23:33:31;102284.78;;;14.21
74060;BMP280;62414;53.436;8.828;2022-10-17T23:36:02;102273.50;;;14.22
74060;BMP280;62414;53.436;8.828;2022-10-17T23:38:28;102282.03;;;14.24
74060;BMP280;62414;53.436;8.828;2022-10-17T23:40:53;102287.41;;;14.28
74060;BMP280;62414;53.436;8.828;2022-10-17T23:43:18;102288.94;;;14.29
74060;BMP280;62414;53.436;8.828;2022-10-17T23:45:44;102297.88;;;14.30
74060;BMP280;62414;53.436;8.828;2022-10-17T23:48:09;102295.53;;;14.32
74060;BMP280;62414;53.436;8.828;2022-10-17T23:50:35;102300.09;;;14.35
74060;BMP280;62414;53.436;8.828;2022-10-17T23:53:01;102294.16;;;14.40
74060;BMP280;62414;53.436;8.828;2022-10-17T23:55:27;102295.72;;;14.41
74060;BMP280;62414;53.436;8.828;2022-10-17T23:57:52;102291.38;;;14.43
